FW3293 Weather Reports


Display with metric or nautical units.
time (UTC)temp
F
wind
direction
speed
MPH
gust
MPH
rain 1hr
in
rain 24hr
in
rain mn
in
humidity
%
barometer
mb
20210419031526 47 30 2.0 2.0 0.00 0.00 0.00 80 1017.4
20210419030527 46 6 1.0 2.0 0.00 0.00 0.00 82 1017.4
20210419025759 47 18 1.0 2.0 0.00 0.00 0.00 79 1017.3
20210419024522 47 25 2.0 2.0 0.00 0.00 0.00 81 1017.3
20210419023518 48 22 1.0 2.0 0.00 0.00 0.00 80 1017.2
20210419022845 49 23 1.0 2.0 0.00 0.00 0.00 74 1017.1
20210419021517 48 228 0.0 1.0 0.00 0.00 0.00 74 1017.0
20210419020537 49 0.0 0.0 0.00 0.00 0.00 77 1016.9
20210419015812 49 0.0 0.0 0.00 0.00 0.00 72 1016.8
20210419014535 50 232 0.0 1.0 0.00 0.00 0.00 71 1016.7
20210419013535 51 0.0 0.0 0.00 0.00 0.00 68 1016.6
20210419012810 53 0.0 0.0 0.00 0.00 0.00 63 1016.6
20210419011543 54 312 0.0 1.0 0.00 0.00 0.00 58 1016.5
20210419010540 55 327 1.0 1.0 0.00 0.00 0.00 57 1016.4
20210419005820 56 311 1.0 2.0 0.00 0.00 0.00 55 1016.4
20210419004532 56 300 2.0 6.0 0.00 0.00 0.00 54 1016.3
20210419003532 56 311 1.0 3.0 0.00 0.00 0.00 53 1016.4
20210419003016 57 292 3.0 6.0 0.00 0.00 0.00 53 1016.4
20210419001550 57 292 3.0 7.0 0.00 0.00 0.00 52 1016.4
20210419000545 57 295 4.0 9.0 0.00 0.00 0.00 52 1016.4
20210418235756 57 286 3.0 9.0 0.00 0.00 0.00 51 1016.4
20210418234531 58 285 5.0 10.0 0.00 0.00 0.00 49 1016.4
20210418233537 57 288 4.0 8.0 0.00 0.00 0.00 50 1016.3
20210418233026 58 285 6.0 9.0 0.00 0.00 0.00 49 1016.3
20210418231540 59 279 5.0 13.0 0.00 0.00 0.00 47 1016.2
20210418230528 58 285 7.0 11.0 0.00 0.00 0.00 48 1016.3
20210418225845 58 294 5.0 10.0 0.00 0.00 0.00 48 1016.3
20210418224547 58 291 5.0 11.0 0.00 0.00 0.00 49 1016.2
20210418223534 59 288 6.0 15.0 0.00 0.00 0.00 47 1016.2
20210418222858 59 284 7.0 14.0 0.00 0.00 0.00 45 1016.3
20210418221547 59 295 7.0 14.0 0.00 0.00 0.00 46 1016.2
20210418220531 59 297 8.0 16.0 0.00 0.00 0.00 44 1016.2
20210418215835 59 281 9.0 17.0 0.00 0.00 0.00 48 1016.2
20210418214541 59 294 7.0 13.0 0.00 0.00 0.00 52 1016.3
20210418213533 57 306 5.0 11.0 0.00 0.00 0.00 52 1016.4
20210418212848 57 284 5.0 10.0 0.00 0.00 0.00 54 1016.4
20210418211540 57 287 6.0 13.0 0.00 0.00 0.00 51 1016.5
20210418210529 57 289 9.0 15.0 0.00 0.00 0.00 51 1016.5
20210418210342 57 288 5.0 13.0 0.00 0.00 0.00 52 1016.7
20210418200031 57 279 7.0 13.0 0.00 0.00 0.00 53 1017.2
20210418195252 58 281 6.0 12.0 0.00 0.00 0.00 54 1017.2
20210418194034 57 278 8.0 19.0 0.00 0.00 0.00 53 1017.2
20210418193059 56 276 7.0 13.0 0.00 0.00 0.00 58 1017.4
20210418192527 55 273 7.0 14.0 0.00 0.00 0.00 58 1017.5
20210418191059 55 283 5.0 10.0 0.00 0.00 0.00 57 1017.5
20210418190029 56 284 7.0 13.0 0.00 0.00 0.00 55 1017.4
20210418185201 57 283 5.0 10.0 0.00 0.00 0.00 58 1017.5
20210418184028 57 281 7.0 14.0 0.00 0.00 0.00 56 1017.5
20210418183037 56 275 7.0 14.0 0.00 0.00 0.00 61 1017.7
20210418182223 55 286 6.0 14.0 0.00 0.00 0.00 62 1017.8
20210418181051 55 289 7.0 16.0 0.00 0.00 0.00 62 1018.0
20210418180028 55 283 7.0 14.0 0.00 0.00 0.00 62 1018.2
20210418175220 55 301 4.0 17.0 0.00 0.00 0.00 65 1018.2
20210418174040 54 287 6.0 12.0 0.00 0.00 0.00 66 1018.3
20210418173109 54 285 6.0 10.0 0.00 0.00 0.00 68 1018.3
20210418172450 54 264 4.0 7.0 0.00 0.00 0.00 67 1018.5
20210418171037 54 294 6.0 11.0 0.00 0.00 0.00 67 1018.7
20210418170039 54 283 6.0 13.0 0.00 0.00 0.00 69 1018.8
20210418165117 53 285 6.0 13.0 0.00 0.00 0.00 69 1018.9
20210418164030 53 282 5.0 11.0 0.00 0.00 0.00 69 1019.0
20210418163155 52 275 7.0 14.0 0.00 0.00 0.00 70 1018.9
20210418162600 52 291 3.0 10.0 0.00 0.00 0.00 72 1019.1
20210418161041 51 313 4.0 9.0 0.00 0.00 0.00 72 1019.2
20210418160042 51 322 4.0 9.0 0.00 0.00 0.00 72 1019.2
20210418155158 51 319 5.0 9.0 0.00 0.00 0.00 71 1019.2
20210418154030 51 295 4.0 11.0 0.00 0.00 0.00 77 1019.3
20210418153029 50 308 4.0 9.0 0.00 0.00 0.00 77 1019.4
20210418152222 49 297 4.0 8.0 0.00 0.00 0.00 80 1019.3
20210418151030 49 267 4.0 9.0 0.00 0.00 0.00 84 1019.3
20210418150049 48 274 3.0 7.0 0.00 0.00 0.00 85 1019.3
20210418145208 48 287 2.0 6.0 0.00 0.00 0.00 87 1019.3
20210418144032 47 284 3.0 10.0 0.00 0.00 0.00 89 1019.3
20210418143104 47 295 2.0 5.0 0.00 0.00 0.00 91 1019.3
20210418142323 47 308 2.0 5.0 0.00 0.00 0.00 92 1019.3
20210418141034 46 354 2.0 6.0 0.00 0.00 0.00 94 1019.4
20210418140050 46 298 4.0 7.0 0.00 0.00 0.00 94 1019.5
20210418135421 46 307 3.0 7.0 0.00 0.00 0.00 96 1019.4
20210418134038 46 312 2.0 5.0 0.00 0.00 0.00 97 1019.3
20210418133033 46 312 3.0 6.0 0.00 0.00 0.00 97 1019.3
20210418132131 46 305 3.0 6.0 0.00 0.00 0.00 98 1019.3
20210418131108 46 312 2.0 5.0 0.00 0.00 0.00 99 1019.2
20210418130228 46 324 2.0 4.0 0.00 0.00 0.00 100 1019.1
20210418125752 46 317 3.0 5.0 0.00 0.00 0.00 100 1019.1
20210418124141 46 327 2.0 4.0 0.00 0.00 0.00 99 1018.9
20210418123456 46 302 2.0 3.0 0.00 0.00 0.00 99 1019.1
20210418122455 46 319 2.0 4.0 0.00 0.00 0.00 99 1019.0
20210418121106 46 322 2.0 4.0 0.00 0.00 0.00 99 1019.0
20210418120222 46 327 2.0 6.0 0.00 0.00 0.00 99 1018.8
20210418115349 46 329 2.0 4.0 0.00 0.00 0.00 99 1018.7
20210418114027 45 333 2.0 3.0 0.00 0.00 0.00 99 1018.6
20210418113101 45 331 2.0 3.0 0.00 0.00 0.00 99 1018.5
20210418112354 45 329 2.0 3.0 0.00 0.00 0.00 99 1018.3
20210418111034 45 325 2.0 3.0 0.00 0.00 0.00 99 1018.4
20210418110125 45 334 2.0 4.0 0.00 0.00 0.00 99 1018.2
20210418105307 45 326 2.0 4.0 0.00 0.00 0.00 99 1018.2
20210418104033 45 329 2.0 4.0 0.00 0.00 0.00 99 1018.2
20210418103032 46 340 2.0 3.0 0.00 0.00 0.00 99 1018.2
20210418102338 46 331 2.0 4.0 0.00 0.00 0.00 99 1018.3
20210418101054 46 336 2.0 3.0 0.00 0.00 0.00 99 1018.2
20210418100055 46 337 2.0 3.0 0.00 0.00 0.00 99 1018.4
20210418095547 46 341 1.0 3.0 0.00 0.00 0.00 99 1018.2
20210418094040 46 338 1.0 3.0 0.00 0.00 0.00 99 1018.3
20210418093104 46 312 2.0 4.0 0.00 0.00 0.00 99 1018.4
20210418092309 46 309 2.0 4.0 0.00 0.00 0.00 99 1018.3
20210418091035 46 307 2.0 7.0 0.00 0.00 0.00 99 1018.3
20210418090107 46 317 2.0 4.0 0.00 0.00 0.00 99 1018.2
20210418085250 46 312 2.0 5.0 0.00 0.00 0.00 99 1018.3
20210418084045 46 313 2.0 4.0 0.00 0.00 0.00 99 1018.4
20210418083037 45 322 2.0 3.0 0.00 0.00 0.00 99 1018.4
20210418082127 45 308 2.0 3.0 0.00 0.00 0.00 99 1018.4
20210418081053 45 311 2.0 3.0 0.00 0.00 0.00 99 1018.5
20210418080146 45 303 2.0 3.0 0.00 0.00 0.00 99 1018.6
20210418075330 46 311 2.0 3.0 0.00 0.00 0.00 100 1018.6
20210418074029 46 317 2.0 4.0 0.00 0.00 0.00 99 1018.6
20210418073041 46 302 2.0 6.0 0.00 0.00 0.00 97 1018.6
20210418072154 47 316 2.0 4.0 0.00 0.00 0.00 96 1018.8
20210418071046 47 305 2.0 4.0 0.00 0.00 0.00 95 1018.9
20210418070032 47 300 2.0 4.0 0.00 0.00 0.00 95 1019.1
20210418065329 47 297 2.0 5.0 0.00 0.00 0.00 95 1019.2
20210418064029 47 285 2.0 5.0 0.00 0.00 0.00 95 1019.2
20210418063027 47 302 2.0 4.0 0.00 0.00 0.00 95 1019.2
20210418062208 47 290 2.0 6.0 0.00 0.01 0.00 95 1019.3
20210418061031 47 290 2.0 4.0 0.00 0.01 0.00 95 1019.4
20210418060154 47 290 3.0 6.0 0.00 0.01 0.00 95 1019.5
20210418055341 47 287 2.0 7.0 0.00 0.02 0.00 95 1019.5
20210418054040 47 289 2.0 4.0 0.00 0.02 0.00 95 1019.6
20210418053057 47 303 2.0 3.0 0.00 0.02 0.00 95 1019.6
20210418052335 47 287 2.0 3.0 0.00 0.02 0.00 94 1019.6
20210418051025 47 286 2.0 3.0 0.00 0.02 0.00 94 1019.6
20210418050115 47 284 2.0 5.0 0.00 0.02 0.00 94 1019.5
20210418045200 47 291 2.0 3.0 0.00 0.02 0.02 94 1019.5
20210418044023 47 305 2.0 4.0 0.00 0.02 0.02 94 1019.4
20210418043042 47 319 1.0 4.0 0.00 0.02 0.02 94 1019.5
20210418042421 47 313 2.0 4.0 0.00 0.02 0.02 95 1019.5
20210418041040 46 318 2.0 4.0 0.00 0.02 0.02 95 1019.5
20210418040040 46 331 2.0 4.0 0.00 0.02 0.02 96 1019.6
20210418035306 46 321 2.0 3.0 0.00 0.02 0.02 97 1019.5
20210418034042 45 332 2.0 3.0 0.00 0.02 0.02 98 1019.7
20210418033056 45 334 1.0 4.0 0.00 0.02 0.02 98 1019.8
20210418032442 44 334 1.0 4.0 0.00 0.02 0.02 99 1019.8